Alkor — DBIG — position and weather

sailwx.info

Track history (hours):
 
Tides and Currents Weather Stations Pressure Air Temp Water Temp Dewpoint Dewpoint Depression Visibility Wind Speed Wind Dir Waves Ship Positions

Oceanographic research ship Alkor (Germany)

Detailed information on ship capabilities available from University of Delaware's Ocean Information Center.

Last reported at 2014-Aug-02 21:33 UTC. Time now 2014-Aug-22 23:36 UTC.
Position N 54°47' E 009°52'.
Warning: this ship's position is 20 days out of date.

Length 49 m; draft 2.4 m.

Type: Law enforcement. MMSI: 211236510.

Date/timePositionNaut miles runAvg speedWind from/ knotsBaromVisibWave heightAir tempDewpointWater temp
2014-Aug-02 21:33N 54°47' E 009°52'0 0.0
2014-Aug-02 20:33N 54°47' E 009°52'1 1.3
2014-Aug-02 19:33N 54°48' E 009°51'6 5.9
2014-Aug-02 18:33N 54°50' E 009°41'3 3.1
2014-Aug-02 17:33N 54°51' E 009°36'6 2.3
2014-Aug-02 15:05N 54°50' E 009°46'3 5.5
2014-Aug-02 14:33N 54°50' E 009°51'6 6.3
2014-Aug-02 13:33N 54°47' E 010°00'  
2014-Jul-28 09:22N 54°35' E 011°12'6 7.3
2014-Jul-28 08:33N 54°33' E 011°21'  
Track history (hours):
 
Tides and Currents Weather Stations Pressure Air Temp Water Temp Dewpoint Dewpoint Depression Visibility Wind Speed Wind Dir Waves Ship Positions

Oceanographic research ship Alkor (Germany)

Detailed information on ship capabilities available from University of Delaware's Ocean Information Center.

Last reported at 2014-Aug-02 21:33 UTC. Time now 2014-Aug-22 23:36 UTC.
Position N 54°47' E 009°52'.
Warning: this ship's position is 20 days out of date.

Length 49 m; draft 2.4 m.

Type: Law enforcement. MMSI: 211236510.

Date/timePositionNaut miles runAvg speedWind from/ knotsBaromVisibWave heightAir tempDewpointWater temp
2014-Aug-02 21:33N 54°47' E 009°52'0 0.0
2014-Aug-02 20:33N 54°47' E 009°52'1 1.3
2014-Aug-02 19:33N 54°48' E 009°51'6 5.9
2014-Aug-02 18:33N 54°50' E 009°41'3 3.1
2014-Aug-02 17:33N 54°51' E 009°36'6 2.3
2014-Aug-02 15:05N 54°50' E 009°46'3 5.5
2014-Aug-02 14:33N 54°50' E 009°51'6 6.3
2014-Aug-02 13:33N 54°47' E 010°00'  
2014-Jul-28 09:22N 54°35' E 011°12'6 7.3
2014-Jul-28 08:33N 54°33' E 011°21'  

Dump ship's entire track history